sensor_id;sensor_type;location;lat;lon;timestamp;P1;durP1;ratioP1;P2;durP2;ratioP2
85065;SDS011;75401;52.588;13.224;2024-03-22T00:00:52;1.20;;;0.80;;
85065;SDS011;75401;52.588;13.224;2024-03-22T00:03:17;1.10;;;0.80;;
85065;SDS011;75401;52.588;13.224;2024-03-22T00:05:42;1.20;;;0.90;;
85065;SDS011;75401;52.588;13.224;2024-03-22T00:08:08;1.13;;;0.80;;
85065;SDS011;75401;52.588;13.224;2024-03-22T00:10:34;1.20;;;0.90;;
85065;SDS011;75401;52.588;13.224;2024-03-22T00:13:00;1.20;;;0.90;;
85065;SDS011;75401;52.588;13.224;2024-03-22T00:15:25;1.20;;;0.97;;
85065;SDS011;75401;52.588;13.224;2024-03-22T00:17:50;1.00;;;0.77;;
85065;SDS011;75401;52.588;13.224;2024-03-22T00:20:16;1.20;;;0.87;;
85065;SDS011;75401;52.588;13.224;2024-03-22T00:22:41;1.30;;;1.13;;
85065;SDS011;75401;52.588;13.224;2024-03-22T00:25:06;1.40;;;1.00;;
85065;SDS011;75401;52.588;13.224;2024-03-22T00:27:34;1.30;;;1.08;;
85065;SDS011;75401;52.588;13.224;2024-03-22T00:29:59;1.20;;;1.00;;
85065;SDS011;75401;52.588;13.224;2024-03-22T00:32:24;1.20;;;0.87;;
85065;SDS011;75401;52.588;13.224;2024-03-22T00:34:49;1.30;;;1.00;;
85065;SDS011;75401;52.588;13.224;2024-03-22T00:37:15;1.30;;;1.00;;
85065;SDS011;75401;52.588;13.224;2024-03-22T00:39:40;1.37;;;1.03;;
85065;SDS011;75401;52.588;13.224;2024-03-22T00:42:06;1.25;;;0.90;;
85065;SDS011;75401;52.588;13.224;2024-03-22T00:44:32;2.10;;;1.20;;
85065;SDS011;75401;52.588;13.224;2024-03-22T00:46:58;1.30;;;1.17;;
85065;SDS011;75401;52.588;13.224;2024-03-22T00:49:23;1.40;;;1.00;;
85065;SDS011;75401;52.588;13.224;2024-03-22T00:51:49;1.37;;;0.93;;
85065;SDS011;75401;52.588;13.224;2024-03-22T00:54:14;1.53;;;1.20;;
85065;SDS011;75401;52.588;13.224;2024-03-22T00:56:39;1.40;;;1.07;;
85065;SDS011;75401;52.588;13.224;2024-03-22T00:59:05;1.60;;;1.00;;
85065;SDS011;75401;52.588;13.224;2024-03-22T01:01:31;1.30;;;1.00;;
85065;SDS011;75401;52.588;13.224;2024-03-22T01:03:57;1.15;;;0.95;;
85065;SDS011;75401;52.588;13.224;2024-03-22T01:06:22;1.30;;;0.90;;
85065;SDS011;75401;52.588;13.224;2024-03-22T01:08:47;1.50;;;1.20;;
85065;SDS011;75401;52.588;13.224;2024-03-22T01:11:13;1.40;;;1.00;;
85065;SDS011;75401;52.588;13.224;2024-03-22T01:13:39;1.55;;;1.10;;
85065;SDS011;75401;52.588;13.224;2024-03-22T01:16:05;1.40;;;1.13;;
85065;SDS011;75401;52.588;13.224;2024-03-22T01:18:38;1.50;;;1.30;;
85065;SDS011;75401;52.588;13.224;2024-03-22T01:21:03;1.50;;;1.20;;
85065;SDS011;75401;52.588;13.224;2024-03-22T01:23:29;1.50;;;1.23;;
85065;SDS011;75401;52.588;13.224;2024-03-22T01:25:55;1.23;;;1.10;;
85065;SDS011;75401;52.588;13.224;2024-03-22T01:28:20;1.40;;;1.17;;
85065;SDS011;75401;52.588;13.224;2024-03-22T01:30:45;1.60;;;1.27;;
85065;SDS011;75401;52.588;13.224;2024-03-22T01:33:11;1.60;;;1.30;;
85065;SDS011;75401;52.588;13.224;2024-03-22T01:35:38;1.40;;;1.17;;
85065;SDS011;75401;52.588;13.224;2024-03-22T01:38:03;1.27;;;1.08;;
85065;SDS011;75401;52.588;13.224;2024-03-22T01:40:28;1.40;;;1.20;;
85065;SDS011;75401;52.588;13.224;2024-03-22T01:42:55;1.70;;;1.20;;
85065;SDS011;75401;52.588;13.224;2024-03-22T01:45:20;1.80;;;1.23;;
85065;SDS011;75401;52.588;13.224;2024-03-22T01:47:46;1.45;;;1.15;;
85065;SDS011;75401;52.588;13.224;2024-03-22T01:50:12;1.80;;;1.50;;
85065;SDS011;75401;52.588;13.224;2024-03-22T01:52:38;1.75;;;1.20;;
85065;SDS011;75401;52.588;13.224;2024-03-22T01:55:04;1.60;;;1.25;;
85065;SDS011;75401;52.588;13.224;2024-03-22T01:57:30;1.45;;;1.15;;
85065;SDS011;75401;52.588;13.224;2024-03-22T01:59:56;1.35;;;1.10;;
85065;SDS011;75401;52.588;13.224;2024-03-22T02:02:23;1.70;;;1.40;;
85065;SDS011;75401;52.588;13.224;2024-03-22T02:04:50;1.37;;;1.10;;
85065;SDS011;75401;52.588;13.224;2024-03-22T02:07:15;1.63;;;1.20;;
85065;SDS011;75401;52.588;13.224;2024-03-22T02:09:42;1.60;;;1.17;;
85065;SDS011;75401;52.588;13.224;2024-03-22T02:12:08;1.70;;;1.15;;
85065;SDS011;75401;52.588;13.224;2024-03-22T02:14:34;1.48;;;1.05;;
85065;SDS011;75401;52.588;13.224;2024-03-22T02:16:59;1.45;;;1.20;;
85065;SDS011;75401;52.588;13.224;2024-03-22T02:19:25;1.50;;;1.20;;
85065;SDS011;75401;52.588;13.224;2024-03-22T02:21:50;1.60;;;1.20;;
85065;SDS011;75401;52.588;13.224;2024-03-22T02:24:17;1.50;;;1.20;;
85065;SDS011;75401;52.588;13.224;2024-03-22T02:26:42;1.30;;;1.02;;
85065;SDS011;75401;52.588;13.224;2024-03-22T02:29:07;1.70;;;1.20;;
85065;SDS011;75401;52.588;13.224;2024-03-22T02:31:33;1.33;;;1.10;;
85065;SDS011;75401;52.588;13.224;2024-03-22T02:33:58;1.70;;;1.30;;
85065;SDS011;75401;52.588;13.224;2024-03-22T02:36:24;1.73;;;1.30;;
85065;SDS011;75401;52.588;13.224;2024-03-22T02:38:49;1.60;;;1.20;;
85065;SDS011;75401;52.588;13.224;2024-03-22T02:41:16;1.47;;;1.20;;
85065;SDS011;75401;52.588;13.224;2024-03-22T02:43:41;1.38;;;1.15;;
85065;SDS011;75401;52.588;13.224;2024-03-22T02:46:06;1.23;;;1.00;;
85065;SDS011;75401;52.588;13.224;2024-03-22T02:48:32;1.40;;;1.03;;
85065;SDS011;75401;52.588;13.224;2024-03-22T02:50:57;1.57;;;1.20;;
85065;SDS011;75401;52.588;13.224;2024-03-22T02:53:23;1.70;;;1.13;;
85065;SDS011;75401;52.588;13.224;2024-03-22T02:55:48;1.50;;;1.20;;
85065;SDS011;75401;52.588;13.224;2024-03-22T02:58:14;1.40;;;1.07;;
85065;SDS011;75401;52.588;13.224;2024-03-22T03:00:42;1.50;;;1.10;;
85065;SDS011;75401;52.588;13.224;2024-03-22T03:03:07;1.35;;;1.10;;
85065;SDS011;75401;52.588;13.224;2024-03-22T03:05:33;1.47;;;1.10;;
85065;SDS011;75401;52.588;13.224;2024-03-22T03:07:58;1.40;;;1.10;;
85065;SDS011;75401;52.588;13.224;2024-03-22T03:10:23;1.33;;;1.10;;
85065;SDS011;75401;52.588;13.224;2024-03-22T03:12:49;1.30;;;1.00;;
85065;SDS011;75401;52.588;13.224;2024-03-22T03:15:15;1.30;;;0.90;;
85065;SDS011;75401;52.588;13.224;2024-03-22T03:17:41;1.40;;;1.00;;
85065;SDS011;75401;52.588;13.224;2024-03-22T03:20:07;1.40;;;1.13;;
85065;SDS011;75401;52.588;13.224;2024-03-22T03:22:32;1.60;;;1.10;;
85065;SDS011;75401;52.588;13.224;2024-03-22T03:24:58;1.30;;;1.02;;
85065;SDS011;75401;52.588;13.224;2024-03-22T03:27:23;1.47;;;1.20;;
85065;SDS011;75401;52.588;13.224;2024-03-22T03:29:48;1.50;;;1.20;;
85065;SDS011;75401;52.588;13.224;2024-03-22T03:32:15;1.60;;;1.40;;
85065;SDS011;75401;52.588;13.224;2024-03-22T03:34:40;1.40;;;1.08;;
85065;SDS011;75401;52.588;13.224;2024-03-22T03:37:06;1.23;;;1.02;;
85065;SDS011;75401;52.588;13.224;2024-03-22T03:39:31;1.40;;;1.20;;
85065;SDS011;75401;52.588;13.224;2024-03-22T03:41:57;1.60;;;1.20;;
85065;SDS011;75401;52.588;13.224;2024-03-22T03:44:22;1.40;;;1.10;;
85065;SDS011;75401;52.588;13.224;2024-03-22T03:46:47;1.47;;;1.07;;
85065;SDS011;75401;52.588;13.224;2024-03-22T03:49:14;1.40;;;1.10;;
85065;SDS011;75401;52.588;13.224;2024-03-22T03:51:39;1.40;;;1.05;;
85065;SDS011;75401;52.588;13.224;2024-03-22T03:54:04;1.83;;;1.10;;
85065;SDS011;75401;52.588;13.224;2024-03-22T03:56:30;1.53;;;1.00;;
85065;SDS011;75401;52.588;13.224;2024-03-22T03:58:55;1.70;;;1.20;;
85065;SDS011;75401;52.588;13.224;2024-03-22T04:01:20;1.50;;;1.00;;
85065;SDS011;75401;52.588;13.224;2024-03-22T04:03:46;1.70;;;1.40;;
85065;SDS011;75401;52.588;13.224;2024-03-22T04:06:14;1.30;;;1.10;;
85065;SDS011;75401;52.588;13.224;2024-03-22T04:08:40;1.42;;;1.10;;
85065;SDS011;75401;52.588;13.224;2024-03-22T04:11:05;1.40;;;1.10;;
85065;SDS011;75401;52.588;13.224;2024-03-22T04:13:30;1.40;;;0.90;;
85065;SDS011;75401;52.588;13.224;2024-03-22T04:15:58;1.77;;;1.30;;
85065;SDS011;75401;52.588;13.224;2024-03-22T04:18:23;1.10;;;0.90;;
85065;SDS011;75401;52.588;13.224;2024-03-22T04:20:53;1.50;;;1.20;;
85065;SDS011;75401;52.588;13.224;2024-03-22T04:23:20;1.48;;;1.13;;
85065;SDS011;75401;52.588;13.224;2024-03-22T04:25:51;1.30;;;1.00;;
85065;SDS011;75401;52.588;13.224;2024-03-22T04:28:17;1.38;;;1.00;;
85065;SDS011;75401;52.588;13.224;2024-03-22T04:30:42;1.20;;;0.90;;
85065;SDS011;75401;52.588;13.224;2024-03-22T04:33:08;1.23;;;0.90;;
85065;SDS011;75401;52.588;13.224;2024-03-22T04:35:33;1.27;;;0.93;;
85065;SDS011;75401;52.588;13.224;2024-03-22T04:37:58;1.33;;;1.00;;
85065;SDS011;75401;52.588;13.224;2024-03-22T04:40:25;1.77;;;1.23;;
85065;SDS011;75401;52.588;13.224;2024-03-22T04:42:50;1.38;;;1.13;;
85065;SDS011;75401;52.588;13.224;2024-03-22T04:45:16;1.30;;;1.00;;
85065;SDS011;75401;52.588;13.224;2024-03-22T04:47:41;1.50;;;1.13;;
85065;SDS011;75401;52.588;13.224;2024-03-22T04:50:06;1.40;;;1.00;;
85065;SDS011;75401;52.588;13.224;2024-03-22T04:52:33;1.45;;;1.00;;
85065;SDS011;75401;52.588;13.224;2024-03-22T04:54:58;1.27;;;1.00;;
85065;SDS011;75401;52.588;13.224;2024-03-22T04:57:25;1.58;;;1.17;;
85065;SDS011;75401;52.588;13.224;2024-03-22T04:59:50;1.20;;;0.98;;
85065;SDS011;75401;52.588;13.224;2024-03-22T05:02:16;1.50;;;1.00;;
85065;SDS011;75401;52.588;13.224;2024-03-22T05:04:41;1.77;;;1.00;;
85065;SDS011;75401;52.588;13.224;2024-03-22T05:07:06;1.17;;;0.90;;
85065;SDS011;75401;52.588;13.224;2024-03-22T05:09:32;1.30;;;1.00;;
85065;SDS011;75401;52.588;13.224;2024-03-22T05:11:57;1.50;;;0.90;;
85065;SDS011;75401;52.588;13.224;2024-03-22T05:14:24;1.60;;;1.10;;
85065;SDS011;75401;52.588;13.224;2024-03-22T05:16:49;1.33;;;1.05;;
85065;SDS011;75401;52.588;13.224;2024-03-22T05:19:14;1.43;;;1.13;;
85065;SDS011;75401;52.588;13.224;2024-03-22T05:21:40;1.17;;;0.98;;
85065;SDS011;75401;52.588;13.224;2024-03-22T05:24:05;1.30;;;1.07;;
85065;SDS011;75401;52.588;13.224;2024-03-22T05:26:31;1.50;;;1.00;;
85065;SDS011;75401;52.588;13.224;2024-03-22T05:28:56;1.85;;;1.10;;
85065;SDS011;75401;52.588;13.224;2024-03-22T05:31:23;1.40;;;1.10;;
85065;SDS011;75401;52.588;13.224;2024-03-22T05:33:48;1.50;;;1.02;;
85065;SDS011;75401;52.588;13.224;2024-03-22T05:36:13;1.30;;;1.00;;
85065;SDS011;75401;52.588;13.224;2024-03-22T05:38:39;1.30;;;1.03;;
85065;SDS011;75401;52.588;13.224;2024-03-22T05:41:04;1.43;;;1.00;;
85065;SDS011;75401;52.588;13.224;2024-03-22T05:43:30;1.20;;;0.90;;
85065;SDS011;75401;52.588;13.224;2024-03-22T05:45:55;1.17;;;0.97;;
85065;SDS011;75401;52.588;13.224;2024-03-22T05:48:22;1.63;;;1.20;;
85065;SDS011;75401;52.588;13.224;2024-03-22T05:50:47;1.60;;;1.10;;
85065;SDS011;75401;52.588;13.224;2024-03-22T05:53:13;1.50;;;1.00;;
85065;SDS011;75401;52.588;13.224;2024-03-22T05:55:38;1.17;;;0.83;;
85065;SDS011;75401;52.588;13.224;2024-03-22T05:58:03;1.30;;;1.00;;
85065;SDS011;75401;52.588;13.224;2024-03-22T06:00:28;1.30;;;1.03;;
85065;SDS011;75401;52.588;13.224;2024-03-22T06:02:54;1.40;;;1.03;;
85065;SDS011;75401;52.588;13.224;2024-03-22T06:05:20;1.40;;;1.00;;
85065;SDS011;75401;52.588;13.224;2024-03-22T06:07:46;2.45;;;1.10;;
85065;SDS011;75401;52.588;13.224;2024-03-22T06:10:11;1.40;;;1.10;;
85065;SDS011;75401;52.588;13.224;2024-03-22T06:12:36;1.50;;;1.00;;
85065;SDS011;75401;52.588;13.224;2024-03-22T06:15:02;1.70;;;1.10;;
85065;SDS011;75401;52.588;13.224;2024-03-22T06:17:28;1.40;;;1.08;;
85065;SDS011;75401;52.588;13.224;2024-03-22T06:19:53;1.40;;;1.00;;
85065;SDS011;75401;52.588;13.224;2024-03-22T06:22:20;1.20;;;0.90;;
85065;SDS011;75401;52.588;13.224;2024-03-22T06:24:45;1.60;;;1.10;;
85065;SDS011;75401;52.588;13.224;2024-03-22T06:27:10;1.33;;;0.97;;
85065;SDS011;75401;52.588;13.224;2024-03-22T06:29:37;1.20;;;0.90;;
85065;SDS011;75401;52.588;13.224;2024-03-22T06:32:02;1.40;;;0.90;;
85065;SDS011;75401;52.588;13.224;2024-03-22T06:34:28;1.20;;;0.90;;
85065;SDS011;75401;52.588;13.224;2024-03-22T06:36:53;1.33;;;0.93;;
85065;SDS011;75401;52.588;13.224;2024-03-22T06:39:20;1.30;;;0.90;;
85065;SDS011;75401;52.588;13.224;2024-03-22T06:41:45;1.27;;;1.00;;
85065;SDS011;75401;52.588;13.224;2024-03-22T06:44:11;1.30;;;0.90;;
85065;SDS011;75401;52.588;13.224;2024-03-22T06:46:36;1.20;;;0.90;;
85065;SDS011;75401;52.588;13.224;2024-03-22T06:49:01;1.50;;;1.00;;
85065;SDS011;75401;52.588;13.224;2024-03-22T06:51:26;1.40;;;1.00;;
85065;SDS011;75401;52.588;13.224;2024-03-22T06:53:52;1.40;;;1.07;;
85065;SDS011;75401;52.588;13.224;2024-03-22T06:56:18;1.30;;;1.00;;
85065;SDS011;75401;52.588;13.224;2024-03-22T06:58:44;1.30;;;1.00;;
85065;SDS011;75401;52.588;13.224;2024-03-22T07:01:09;1.27;;;0.90;;
85065;SDS011;75401;52.588;13.224;2024-03-22T07:03:35;1.20;;;0.90;;
85065;SDS011;75401;52.588;13.224;2024-03-22T07:06:00;1.30;;;0.97;;
85065;SDS011;75401;52.588;13.224;2024-03-22T07:08:26;1.33;;;0.90;;
85065;SDS011;75401;52.588;13.224;2024-03-22T07:10:51;1.30;;;1.00;;
85065;SDS011;75401;52.588;13.224;2024-03-22T07:13:18;1.60;;;1.20;;
85065;SDS011;75401;52.588;13.224;2024-03-22T07:15:44;1.25;;;1.00;;
85065;SDS011;75401;52.588;13.224;2024-03-22T07:18:09;1.83;;;0.90;;
85065;SDS011;75401;52.588;13.224;2024-03-22T07:20:34;1.50;;;1.10;;
85065;SDS011;75401;52.588;13.224;2024-03-22T07:23:00;1.30;;;1.10;;
85065;SDS011;75401;52.588;13.224;2024-03-22T07:25:25;1.43;;;1.23;;
85065;SDS011;75401;52.588;13.224;2024-03-22T07:27:50;1.53;;;1.00;;
85065;SDS011;75401;52.588;13.224;2024-03-22T07:30:17;1.37;;;1.20;;
85065;SDS011;75401;52.588;13.224;2024-03-22T07:32:42;1.90;;;1.30;;
85065;SDS011;75401;52.588;13.224;2024-03-22T07:35:08;1.88;;;1.30;;
85065;SDS011;75401;52.588;13.224;2024-03-22T07:37:33;1.70;;;1.30;;
85065;SDS011;75401;52.588;13.224;2024-03-22T07:39:58;1.37;;;1.17;;
85065;SDS011;75401;52.588;13.224;2024-03-22T07:42:24;1.30;;;1.10;;
85065;SDS011;75401;52.588;13.224;2024-03-22T07:44:49;1.50;;;1.20;;
85065;SDS011;75401;52.588;13.224;2024-03-22T07:47:16;1.60;;;1.20;;
85065;SDS011;75401;52.588;13.224;2024-03-22T07:49:41;1.63;;;1.33;;
85065;SDS011;75401;52.588;13.224;2024-03-22T07:52:06;1.50;;;1.33;;
85065;SDS011;75401;52.588;13.224;2024-03-22T07:54:32;1.50;;;1.40;;
85065;SDS011;75401;52.588;13.224;2024-03-22T07:56:57;1.70;;;1.40;;
85065;SDS011;75401;52.588;13.224;2024-03-22T07:59:23;1.50;;;1.40;;
85065;SDS011;75401;52.588;13.224;2024-03-22T08:01:48;1.77;;;1.30;;
85065;SDS011;75401;52.588;13.224;2024-03-22T08:04:15;1.50;;;1.20;;
85065;SDS011;75401;52.588;13.224;2024-03-22T08:06:40;1.58;;;1.30;;
85065;SDS011;75401;52.588;13.224;2024-03-22T08:09:06;1.70;;;1.40;;
85065;SDS011;75401;52.588;13.224;2024-03-22T08:11:31;1.83;;;1.47;;
85065;SDS011;75401;52.588;13.224;2024-03-22T08:13:56;1.60;;;1.33;;
85065;SDS011;75401;52.588;13.224;2024-03-22T08:16:22;1.70;;;1.47;;
85065;SDS011;75401;52.588;13.224;2024-03-22T08:18:47;1.73;;;1.40;;
85065;SDS011;75401;52.588;13.224;2024-03-22T08:21:14;1.77;;;1.40;;
85065;SDS011;75401;52.588;13.224;2024-03-22T08:23:39;2.05;;;1.60;;
85065;SDS011;75401;52.588;13.224;2024-03-22T08:26:04;1.87;;;1.50;;
85065;SDS011;75401;52.588;13.224;2024-03-22T08:28:30;1.50;;;1.27;;
85065;SDS011;75401;52.588;13.224;2024-03-22T08:30:55;1.77;;;1.47;;
85065;SDS011;75401;52.588;13.224;2024-03-22T08:33:20;2.00;;;1.57;;
85065;SDS011;75401;52.588;13.224;2024-03-22T08:35:46;1.60;;;1.50;;
85065;SDS011;75401;52.588;13.224;2024-03-22T08:38:12;2.00;;;1.43;;
85065;SDS011;75401;52.588;13.224;2024-03-22T08:40:38;1.50;;;1.30;;
85065;SDS011;75401;52.588;13.224;2024-03-22T08:43:03;1.83;;;1.60;;
85065;SDS011;75401;52.588;13.224;2024-03-22T08:45:29;1.83;;;1.52;;
85065;SDS011;75401;52.588;13.224;2024-03-22T08:47:54;1.70;;;1.57;;
85065;SDS011;75401;52.588;13.224;2024-03-22T08:50:20;1.50;;;1.20;;
85065;SDS011;75401;52.588;13.224;2024-03-22T08:52:45;1.70;;;1.33;;
85065;SDS011;75401;52.588;13.224;2024-03-22T08:55:11;1.60;;;1.40;;
85065;SDS011;75401;52.588;13.224;2024-03-22T08:57:37;1.85;;;1.38;;
85065;SDS011;75401;52.588;13.224;2024-03-22T09:00:02;1.70;;;1.50;;
85065;SDS011;75401;52.588;13.224;2024-03-22T09:02:28;1.73;;;1.45;;
85065;SDS011;75401;52.588;13.224;2024-03-22T09:04:53;1.90;;;1.30;;
85065;SDS011;75401;52.588;13.224;2024-03-22T09:07:19;1.42;;;1.20;;
85065;SDS011;75401;52.588;13.224;2024-03-22T09:09:45;2.00;;;1.60;;
85065;SDS011;75401;52.588;13.224;2024-03-22T09:12:11;1.65;;;1.25;;
85065;SDS011;75401;52.588;13.224;2024-03-22T09:14:37;1.75;;;1.38;;
85065;SDS011;75401;52.588;13.224;2024-03-22T09:17:02;1.60;;;1.30;;
85065;SDS011;75401;52.588;13.224;2024-03-22T09:19:27;1.70;;;1.45;;
85065;SDS011;75401;52.588;13.224;2024-03-22T09:21:53;1.77;;;1.30;;
85065;SDS011;75401;52.588;13.224;2024-03-22T09:24:18;1.70;;;1.40;;
85065;SDS011;75401;52.588;13.224;2024-03-22T09:26:43;1.87;;;1.50;;
85065;SDS011;75401;52.588;13.224;2024-03-22T09:29:10;1.70;;;1.47;;
85065;SDS011;75401;52.588;13.224;2024-03-22T09:31:35;1.50;;;1.25;;
85065;SDS011;75401;52.588;13.224;2024-03-22T09:34:01;1.60;;;1.30;;
85065;SDS011;75401;52.588;13.224;2024-03-22T09:36:27;1.65;;;1.50;;
85065;SDS011;75401;52.588;13.224;2024-03-22T09:38:53;1.70;;;1.50;;
85065;SDS011;75401;52.588;13.224;2024-03-22T09:41:19;1.73;;;1.40;;
85065;SDS011;75401;52.588;13.224;2024-03-22T09:43:49;1.75;;;1.50;;
85065;SDS011;75401;52.588;13.224;2024-03-22T09:46:18;1.80;;;1.42;;
85065;SDS011;75401;52.588;13.224;2024-03-22T09:48:44;1.65;;;1.48;;
85065;SDS011;75401;52.588;13.224;2024-03-22T09:51:12;1.70;;;1.35;;
85065;SDS011;75401;52.588;13.224;2024-03-22T09:53:38;1.67;;;1.58;;
85065;SDS011;75401;52.588;13.224;2024-03-22T09:56:05;1.30;;;1.20;;
85065;SDS011;75401;52.588;13.224;2024-03-22T09:58:31;1.70;;;1.33;;
85065;SDS011;75401;52.588;13.224;2024-03-22T10:00:56;1.93;;;1.40;;
85065;SDS011;75401;52.588;13.224;2024-03-22T10:03:24;1.55;;;1.30;;
85065;SDS011;75401;52.588;13.224;2024-03-22T10:05:50;1.60;;;1.15;;
85065;SDS011;75401;52.588;13.224;2024-03-22T10:08:15;1.50;;;1.20;;
85065;SDS011;75401;52.588;13.224;2024-03-22T10:10:41;1.55;;;1.33;;
85065;SDS011;75401;52.588;13.224;2024-03-22T10:13:06;1.42;;;1.23;;
85065;SDS011;75401;52.588;13.224;2024-03-22T10:15:33;1.70;;;1.30;;
85065;SDS011;75401;52.588;13.224;2024-03-22T10:17:58;1.93;;;1.30;;
85065;SDS011;75401;52.588;13.224;2024-03-22T10:20:25;1.60;;;1.30;;
85065;SDS011;75401;52.588;13.224;2024-03-22T10:22:54;1.75;;;1.20;;
85065;SDS011;75401;52.588;13.224;2024-03-22T10:25:20;1.50;;;1.20;;
85065;SDS011;75401;52.588;13.224;2024-03-22T10:27:47;1.60;;;1.02;;
85065;SDS011;75401;52.588;13.224;2024-03-22T10:30:14;1.48;;;1.17;;
85065;SDS011;75401;52.588;13.224;2024-03-22T10:32:40;1.35;;;1.13;;
85065;SDS011;75401;52.588;13.224;2024-03-22T10:35:07;1.38;;;1.13;;
85065;SDS011;75401;52.588;13.224;2024-03-22T10:37:37;1.50;;;1.17;;
85065;SDS011;75401;52.588;13.224;2024-03-22T10:40:03;1.30;;;1.15;;
85065;SDS011;75401;52.588;13.224;2024-03-22T10:42:29;1.52;;;1.20;;
85065;SDS011;75401;52.588;13.224;2024-03-22T10:44:54;1.47;;;1.10;;
85065;SDS011;75401;52.588;13.224;2024-03-22T10:47:20;1.40;;;1.17;;
85065;SDS011;75401;52.588;13.224;2024-03-22T10:49:49;1.40;;;1.20;;
85065;SDS011;75401;52.588;13.224;2024-03-22T10:52:17;1.38;;;1.10;;
85065;SDS011;75401;52.588;13.224;2024-03-22T10:54:44;1.95;;;1.13;;
85065;SDS011;75401;52.588;13.224;2024-03-22T10:57:12;1.73;;;1.15;;
85065;SDS011;75401;52.588;13.224;2024-03-22T10:59:40;1.65;;;1.17;;
85065;SDS011;75401;52.588;13.224;2024-03-22T11:02:06;1.60;;;1.20;;
85065;SDS011;75401;52.588;13.224;2024-03-22T11:04:35;1.35;;;1.10;;
85065;SDS011;75401;52.588;13.224;2024-03-22T11:07:00;1.53;;;1.13;;
85065;SDS011;75401;52.588;13.224;2024-03-22T11:09:26;1.52;;;1.13;;
85065;SDS011;75401;52.588;13.224;2024-03-22T11:11:53;1.55;;;1.30;;
85065;SDS011;75401;52.588;13.224;2024-03-22T11:14:20;1.67;;;1.20;;
85065;SDS011;75401;52.588;13.224;2024-03-22T11:16:45;1.55;;;1.00;;
85065;SDS011;75401;52.588;13.224;2024-03-22T11:19:11;1.57;;;1.23;;
85065;SDS011;75401;52.588;13.224;2024-03-22T11:21:36;1.42;;;1.05;;
85065;SDS011;75401;52.588;13.224;2024-03-22T11:24:02;1.40;;;1.20;;
85065;SDS011;75401;52.588;13.224;2024-03-22T11:26:27;1.45;;;1.23;;
85065;SDS011;75401;52.588;13.224;2024-03-22T11:28:54;1.40;;;1.10;;
85065;SDS011;75401;52.588;13.224;2024-03-22T11:31:19;1.52;;;1.23;;
85065;SDS011;75401;52.588;13.224;2024-03-22T11:33:45;1.48;;;1.23;;
85065;SDS011;75401;52.588;13.224;2024-03-22T11:36:10;1.60;;;1.40;;
85065;SDS011;75401;52.588;13.224;2024-03-22T11:38:36;1.70;;;1.37;;
85065;SDS011;75401;52.588;13.224;2024-03-22T11:41:02;1.55;;;1.35;;
85065;SDS011;75401;52.588;13.224;2024-03-22T11:43:28;1.60;;;1.30;;
85065;SDS011;75401;52.588;13.224;2024-03-22T11:45:55;1.40;;;1.13;;
85065;SDS011;75401;52.588;13.224;2024-03-22T11:48:21;1.60;;;1.20;;
85065;SDS011;75401;52.588;13.224;2024-03-22T11:50:46;1.60;;;1.23;;
85065;SDS011;75401;52.588;13.224;2024-03-22T11:53:12;1.40;;;1.10;;
85065;SDS011;75401;52.588;13.224;2024-03-22T11:55:37;1.43;;;1.03;;
85065;SDS011;75401;52.588;13.224;2024-03-22T11:58:02;1.60;;;1.27;;
85065;SDS011;75401;52.588;13.224;2024-03-22T12:00:28;2.10;;;1.35;;
85065;SDS011;75401;52.588;13.224;2024-03-22T12:02:55;1.60;;;1.25;;
85065;SDS011;75401;52.588;13.224;2024-03-22T12:05:20;1.52;;;1.27;;
85065;SDS011;75401;52.588;13.224;2024-03-22T12:07:46;1.60;;;1.42;;
85065;SDS011;75401;52.588;13.224;2024-03-22T12:10:11;2.00;;;1.47;;
85065;SDS011;75401;52.588;13.224;2024-03-22T12:12:37;1.92;;;1.40;;
85065;SDS011;75401;52.588;13.224;2024-03-22T12:15:03;1.70;;;1.40;;
85065;SDS011;75401;52.588;13.224;2024-03-22T12:17:28;2.05;;;1.38;;
85065;SDS011;75401;52.588;13.224;2024-03-22T12:19:56;2.20;;;1.57;;
85065;SDS011;75401;52.588;13.224;2024-03-22T12:22:21;2.00;;;1.38;;
85065;SDS011;75401;52.588;13.224;2024-03-22T12:24:47;1.90;;;1.50;;
85065;SDS011;75401;52.588;13.224;2024-03-22T12:27:12;2.03;;;1.60;;
85065;SDS011;75401;52.588;13.224;2024-03-22T12:29:37;1.90;;;1.63;;
85065;SDS011;75401;52.588;13.224;2024-03-22T12:32:03;1.67;;;1.55;;
85065;SDS011;75401;52.588;13.224;2024-03-22T12:34:28;1.70;;;1.48;;
85065;SDS011;75401;52.588;13.224;2024-03-22T12:36:55;1.60;;;1.45;;
85065;SDS011;75401;52.588;13.224;2024-03-22T12:39:20;2.28;;;1.50;;
85065;SDS011;75401;52.588;13.224;2024-03-22T12:41:46;1.80;;;1.40;;
85065;SDS011;75401;52.588;13.224;2024-03-22T12:44:11;1.80;;;1.40;;
85065;SDS011;75401;52.588;13.224;2024-03-22T12:46:37;1.73;;;1.53;;
85065;SDS011;75401;52.588;13.224;2024-03-22T12:49:02;1.60;;;1.50;;
85065;SDS011;75401;52.588;13.224;2024-03-22T12:51:28;1.70;;;1.30;;
85065;SDS011;75401;52.588;13.224;2024-03-22T12:53:55;1.90;;;1.70;;
85065;SDS011;75401;52.588;13.224;2024-03-22T12:56:20;1.70;;;1.50;;
85065;SDS011;75401;52.588;13.224;2024-03-22T12:58:46;1.90;;;1.63;;
85065;SDS011;75401;52.588;13.224;2024-03-22T13:01:12;1.90;;;1.50;;
85065;SDS011;75401;52.588;13.224;2024-03-22T13:03:37;2.30;;;1.50;;
85065;SDS011;75401;52.588;13.224;2024-03-22T13:06:03;2.20;;;1.80;;
85065;SDS011;75401;52.588;13.224;2024-03-22T13:08:28;1.77;;;1.48;;
85065;SDS011;75401;52.588;13.224;2024-03-22T13:10:55;1.90;;;1.50;;
85065;SDS011;75401;52.588;13.224;2024-03-22T13:13:20;1.60;;;1.40;;
85065;SDS011;75401;52.588;13.224;2024-03-22T13:15:46;1.57;;;1.47;;
85065;SDS011;75401;52.588;13.224;2024-03-22T13:18:11;1.80;;;1.50;;
85065;SDS011;75401;52.588;13.224;2024-03-22T13:20:36;1.80;;;1.47;;
85065;SDS011;75401;52.588;13.224;2024-03-22T13:23:02;1.80;;;1.60;;
85065;SDS011;75401;52.588;13.224;2024-03-22T13:25:27;1.90;;;1.52;;
85065;SDS011;75401;52.588;13.224;2024-03-22T13:27:54;1.67;;;1.27;;
85065;SDS011;75401;52.588;13.224;2024-03-22T13:30:20;2.10;;;1.50;;
85065;SDS011;75401;52.588;13.224;2024-03-22T13:32:45;2.25;;;1.38;;
85065;SDS011;75401;52.588;13.224;2024-03-22T13:35:11;1.90;;;1.45;;
85065;SDS011;75401;52.588;13.224;2024-03-22T13:37:36;1.60;;;1.25;;
85065;SDS011;75401;52.588;13.224;2024-03-22T13:40:02;2.30;;;1.60;;
85065;SDS011;75401;52.588;13.224;2024-03-22T13:42:27;1.92;;;1.52;;
85065;SDS011;75401;52.588;13.224;2024-03-22T13:44:55;1.63;;;1.25;;
85065;SDS011;75401;52.588;13.224;2024-03-22T13:47:20;1.55;;;1.40;;
85065;SDS011;75401;52.588;13.224;2024-03-22T13:49:46;1.60;;;1.20;;
85065;SDS011;75401;52.588;13.224;2024-03-22T13:52:11;1.60;;;1.20;;
85065;SDS011;75401;52.588;13.224;2024-03-22T13:54:36;1.70;;;1.30;;
85065;SDS011;75401;52.588;13.224;2024-03-22T13:57:02;1.60;;;1.20;;
85065;SDS011;75401;52.588;13.224;2024-03-22T13:59:28;1.65;;;1.20;;
85065;SDS011;75401;52.588;13.224;2024-03-22T14:01:55;1.90;;;1.30;;
85065;SDS011;75401;52.588;13.224;2024-03-22T14:04:21;1.63;;;1.20;;
85065;SDS011;75401;52.588;13.224;2024-03-22T14:06:46;1.70;;;1.43;;
85065;SDS011;75401;52.588;13.224;2024-03-22T14:09:11;1.60;;;1.30;;
85065;SDS011;75401;52.588;13.224;2024-03-22T14:11:37;1.50;;;1.20;;
85065;SDS011;75401;52.588;13.224;2024-03-22T14:14:02;1.40;;;1.13;;
85065;SDS011;75401;52.588;13.224;2024-03-22T14:16:27;1.77;;;1.17;;
85065;SDS011;75401;52.588;13.224;2024-03-22T14:18:54;1.40;;;1.05;;
85065;SDS011;75401;52.588;13.224;2024-03-22T14:21:20;1.40;;;1.10;;
85065;SDS011;75401;52.588;13.224;2024-03-22T14:23:45;1.40;;;1.10;;